Plum Tree, Indiana
Current Conditions -  °F | °C
As of 12:55 AM on Friday 31 Oct 2014 (Local Time) from KMZZ Reporting Station
Broken Clouds Broken Clouds  
Wind Chill: 43°   Ceiling: 12000
Heat Index: 43°   Visibility: 10mi
Dew Point: 36°   Wind: 0mph
Humidity: 77%   Direction: NA
Pressure: 30.04"   Gusts: NA
Location:  40.6897°N, 85.3916°W
Report Text: KMZZ 310455Z AUTO 00000KT 10SM BKN120 06/02 A3004 RMK AO2 T00600023
Loading
Personal Weather Stations






























Interactive Weather Map
Tropical Storm Tracking
New forecast layout! Learn more

10-Day Weather Forecast

Advertisements
Track Severe Weather on mobile